sensor_id;sensor_type;location;lat;lon;timestamp;P1;durP1;ratioP1;P2;durP2;ratioP2
8803;SDS011;4438;50.890;4.726;2024-01-10T00:02:01;10.67;;;6.50;;
8803;SDS011;4438;50.890;4.726;2024-01-10T00:04:28;10.70;;;6.73;;
8803;SDS011;4438;50.890;4.726;2024-01-10T00:06:54;10.00;;;6.17;;
8803;SDS011;4438;50.890;4.726;2024-01-10T00:09:20;9.40;;;6.43;;
8803;SDS011;4438;50.890;4.726;2024-01-10T00:11:46;8.87;;;6.10;;
8803;SDS011;4438;50.890;4.726;2024-01-10T00:14:12;9.57;;;6.40;;
8803;SDS011;4438;50.890;4.726;2024-01-10T00:16:38;11.13;;;6.57;;
8803;SDS011;4438;50.890;4.726;2024-01-10T00:19:04;10.47;;;6.70;;
8803;SDS011;4438;50.890;4.726;2024-01-10T00:21:30;9.53;;;6.50;;
8803;SDS011;4438;50.890;4.726;2024-01-10T00:23:57;9.40;;;6.73;;
8803;SDS011;4438;50.890;4.726;2024-01-10T00:26:23;8.93;;;6.67;;
8803;SDS011;4438;50.890;4.726;2024-01-10T00:28:49;9.40;;;6.23;;
8803;SDS011;4438;50.890;4.726;2024-01-10T00:31:15;9.50;;;6.80;;
8803;SDS011;4438;50.890;4.726;2024-01-10T00:33:41;9.47;;;6.90;;
8803;SDS011;4438;50.890;4.726;2024-01-10T00:36:08;10.53;;;6.67;;
8803;SDS011;4438;50.890;4.726;2024-01-10T00:38:34;9.77;;;6.80;;
8803;SDS011;4438;50.890;4.726;2024-01-10T00:41:00;12.40;;;6.80;;
8803;SDS011;4438;50.890;4.726;2024-01-10T00:43:26;10.23;;;7.03;;
8803;SDS011;4438;50.890;4.726;2024-01-10T00:45:52;10.53;;;6.83;;
8803;SDS011;4438;50.890;4.726;2024-01-10T00:48:18;10.70;;;6.63;;
8803;SDS011;4438;50.890;4.726;2024-01-10T00:50:44;9.93;;;6.60;;
8803;SDS011;4438;50.890;4.726;2024-01-10T00:53:11;8.70;;;6.20;;
8803;SDS011;4438;50.890;4.726;2024-01-10T00:55:37;9.90;;;6.53;;
8803;SDS011;4438;50.890;4.726;2024-01-10T00:58:03;10.70;;;7.10;;
8803;SDS011;4438;50.890;4.726;2024-01-10T01:00:29;10.37;;;7.40;;
8803;SDS011;4438;50.890;4.726;2024-01-10T01:02:55;12.07;;;7.00;;
8803;SDS011;4438;50.890;4.726;2024-01-10T01:05:21;11.60;;;7.13;;
8803;SDS011;4438;50.890;4.726;2024-01-10T01:07:47;9.97;;;7.10;;
8803;SDS011;4438;50.890;4.726;2024-01-10T01:10:13;11.37;;;6.60;;
8803;SDS011;4438;50.890;4.726;2024-01-10T01:12:39;13.40;;;7.37;;
8803;SDS011;4438;50.890;4.726;2024-01-10T01:15:05;12.07;;;7.27;;
8803;SDS011;4438;50.890;4.726;2024-01-10T01:17:32;9.83;;;6.87;;
8803;SDS011;4438;50.890;4.726;2024-01-10T01:19:59;11.47;;;7.27;;
8803;SDS011;4438;50.890;4.726;2024-01-10T01:22:25;10.87;;;6.70;;
8803;SDS011;4438;50.890;4.726;2024-01-10T01:24:51;11.17;;;7.33;;
8803;SDS011;4438;50.890;4.726;2024-01-10T01:27:18;11.83;;;7.37;;
8803;SDS011;4438;50.890;4.726;2024-01-10T01:29:44;10.23;;;7.20;;
8803;SDS011;4438;50.890;4.726;2024-01-10T01:32:10;11.43;;;7.50;;
8803;SDS011;4438;50.890;4.726;2024-01-10T01:34:36;9.93;;;7.13;;
8803;SDS011;4438;50.890;4.726;2024-01-10T01:37:02;9.77;;;7.20;;
8803;SDS011;4438;50.890;4.726;2024-01-10T01:39:29;10.30;;;7.40;;
8803;SDS011;4438;50.890;4.726;2024-01-10T01:41:55;11.23;;;7.17;;
8803;SDS011;4438;50.890;4.726;2024-01-10T01:44:21;10.10;;;7.03;;
8803;SDS011;4438;50.890;4.726;2024-01-10T01:46:47;10.47;;;6.90;;
8803;SDS011;4438;50.890;4.726;2024-01-10T01:49:14;13.23;;;7.97;;
8803;SDS011;4438;50.890;4.726;2024-01-10T01:51:40;10.37;;;7.47;;
8803;SDS011;4438;50.890;4.726;2024-01-10T01:54:06;10.57;;;6.73;;
8803;SDS011;4438;50.890;4.726;2024-01-10T01:56:36;11.57;;;7.43;;
8803;SDS011;4438;50.890;4.726;2024-01-10T01:59:03;9.30;;;6.57;;
8803;SDS011;4438;50.890;4.726;2024-01-10T02:01:30;12.60;;;7.40;;
8803;SDS011;4438;50.890;4.726;2024-01-10T02:03:56;11.10;;;6.93;;
8803;SDS011;4438;50.890;4.726;2024-01-10T02:06:22;9.43;;;6.60;;
8803;SDS011;4438;50.890;4.726;2024-01-10T02:08:48;10.93;;;6.90;;
8803;SDS011;4438;50.890;4.726;2024-01-10T02:11:14;11.30;;;6.90;;
8803;SDS011;4438;50.890;4.726;2024-01-10T02:13:41;12.07;;;7.23;;
8803;SDS011;4438;50.890;4.726;2024-01-10T02:16:07;9.77;;;7.13;;
8803;SDS011;4438;50.890;4.726;2024-01-10T02:18:34;9.30;;;6.70;;
8803;SDS011;4438;50.890;4.726;2024-01-10T02:21:00;10.00;;;7.33;;
8803;SDS011;4438;50.890;4.726;2024-01-10T02:23:26;8.80;;;6.73;;
8803;SDS011;4438;50.890;4.726;2024-01-10T02:25:53;10.33;;;6.73;;
8803;SDS011;4438;50.890;4.726;2024-01-10T02:28:19;10.03;;;7.03;;
8803;SDS011;4438;50.890;4.726;2024-01-10T02:30:45;9.77;;;6.80;;
8803;SDS011;4438;50.890;4.726;2024-01-10T02:33:12;11.33;;;7.17;;
8803;SDS011;4438;50.890;4.726;2024-01-10T02:35:38;10.70;;;7.67;;
8803;SDS011;4438;50.890;4.726;2024-01-10T02:38:04;9.33;;;6.57;;
8803;SDS011;4438;50.890;4.726;2024-01-10T02:40:30;12.67;;;7.53;;
8803;SDS011;4438;50.890;4.726;2024-01-10T02:42:56;10.47;;;7.03;;
8803;SDS011;4438;50.890;4.726;2024-01-10T02:45:22;10.90;;;7.43;;
8803;SDS011;4438;50.890;4.726;2024-01-10T02:47:48;10.70;;;7.63;;
8803;SDS011;4438;50.890;4.726;2024-01-10T02:50:15;11.33;;;7.70;;
8803;SDS011;4438;50.890;4.726;2024-01-10T02:52:41;11.00;;;7.53;;
8803;SDS011;4438;50.890;4.726;2024-01-10T02:55:07;11.23;;;7.10;;
8803;SDS011;4438;50.890;4.726;2024-01-10T02:57:33;10.73;;;7.03;;
8803;SDS011;4438;50.890;4.726;2024-01-10T03:00:00;12.13;;;7.70;;
8803;SDS011;4438;50.890;4.726;2024-01-10T03:02:26;9.67;;;7.00;;
8803;SDS011;4438;50.890;4.726;2024-01-10T03:04:52;12.10;;;7.03;;
8803;SDS011;4438;50.890;4.726;2024-01-10T03:07:18;11.20;;;7.50;;
8803;SDS011;4438;50.890;4.726;2024-01-10T03:09:44;11.27;;;7.67;;
8803;SDS011;4438;50.890;4.726;2024-01-10T03:12:10;11.07;;;7.80;;
8803;SDS011;4438;50.890;4.726;2024-01-10T03:14:37;10.83;;;7.47;;
8803;SDS011;4438;50.890;4.726;2024-01-10T03:17:03;10.27;;;7.30;;
8803;SDS011;4438;50.890;4.726;2024-01-10T03:19:30;10.10;;;7.37;;
8803;SDS011;4438;50.890;4.726;2024-01-10T03:21:56;11.20;;;7.77;;
8803;SDS011;4438;50.890;4.726;2024-01-10T03:24:22;10.70;;;7.13;;
8803;SDS011;4438;50.890;4.726;2024-01-10T03:26:51;9.70;;;7.20;;
8803;SDS011;4438;50.890;4.726;2024-01-10T03:29:17;12.53;;;7.70;;
8803;SDS011;4438;50.890;4.726;2024-01-10T03:31:43;11.47;;;7.50;;
8803;SDS011;4438;50.890;4.726;2024-01-10T03:34:09;9.83;;;7.23;;
8803;SDS011;4438;50.890;4.726;2024-01-10T03:36:35;11.53;;;8.00;;
8803;SDS011;4438;50.890;4.726;2024-01-10T03:39:02;11.30;;;8.00;;
8803;SDS011;4438;50.890;4.726;2024-01-10T03:41:28;12.00;;;8.47;;
8803;SDS011;4438;50.890;4.726;2024-01-10T03:43:54;10.67;;;7.40;;
8803;SDS011;4438;50.890;4.726;2024-01-10T03:46:20;11.87;;;7.70;;
8803;SDS011;4438;50.890;4.726;2024-01-10T03:48:46;9.83;;;7.57;;
8803;SDS011;4438;50.890;4.726;2024-01-10T03:51:13;12.63;;;7.80;;
8803;SDS011;4438;50.890;4.726;2024-01-10T03:53:39;15.17;;;8.57;;
8803;SDS011;4438;50.890;4.726;2024-01-10T03:56:06;13.00;;;8.63;;
8803;SDS011;4438;50.890;4.726;2024-01-10T03:58:32;11.90;;;8.73;;
8803;SDS011;4438;50.890;4.726;2024-01-10T04:00:58;14.17;;;9.13;;
8803;SDS011;4438;50.890;4.726;2024-01-10T04:03:24;15.57;;;9.10;;
8803;SDS011;4438;50.890;4.726;2024-01-10T04:05:50;14.77;;;8.77;;
8803;SDS011;4438;50.890;4.726;2024-01-10T04:08:16;12.23;;;8.50;;
8803;SDS011;4438;50.890;4.726;2024-01-10T04:10:42;13.83;;;8.37;;
8803;SDS011;4438;50.890;4.726;2024-01-10T04:13:09;12.97;;;8.37;;
8803;SDS011;4438;50.890;4.726;2024-01-10T04:15:35;12.87;;;8.43;;
8803;SDS011;4438;50.890;4.726;2024-01-10T04:18:01;12.57;;;8.07;;
8803;SDS011;4438;50.890;4.726;2024-01-10T04:20:27;11.60;;;8.40;;
8803;SDS011;4438;50.890;4.726;2024-01-10T04:22:54;13.83;;;8.23;;
8803;SDS011;4438;50.890;4.726;2024-01-10T04:25:20;10.93;;;7.73;;
8803;SDS011;4438;50.890;4.726;2024-01-10T04:27:46;12.63;;;7.70;;
8803;SDS011;4438;50.890;4.726;2024-01-10T04:30:12;12.10;;;8.03;;
8803;SDS011;4438;50.890;4.726;2024-01-10T04:32:38;12.17;;;7.50;;
8803;SDS011;4438;50.890;4.726;2024-01-10T04:35:04;13.00;;;8.00;;
8803;SDS011;4438;50.890;4.726;2024-01-10T04:37:31;13.23;;;8.33;;
8803;SDS011;4438;50.890;4.726;2024-01-10T04:39:57;11.10;;;7.67;;
8803;SDS011;4438;50.890;4.726;2024-01-10T04:42:23;13.67;;;8.33;;
8803;SDS011;4438;50.890;4.726;2024-01-10T04:44:50;10.70;;;7.83;;
8803;SDS011;4438;50.890;4.726;2024-01-10T04:47:16;12.40;;;8.50;;
8803;SDS011;4438;50.890;4.726;2024-01-10T04:49:42;12.03;;;7.77;;
8803;SDS011;4438;50.890;4.726;2024-01-10T04:52:08;13.07;;;7.87;;
8803;SDS011;4438;50.890;4.726;2024-01-10T04:54:34;13.97;;;8.40;;
8803;SDS011;4438;50.890;4.726;2024-01-10T04:57:00;10.47;;;7.60;;
8803;SDS011;4438;50.890;4.726;2024-01-10T04:59:26;11.87;;;8.00;;
8803;SDS011;4438;50.890;4.726;2024-01-10T05:01:52;10.73;;;8.07;;
8803;SDS011;4438;50.890;4.726;2024-01-10T05:04:18;12.97;;;8.17;;
8803;SDS011;4438;50.890;4.726;2024-01-10T05:06:44;12.30;;;8.07;;
8803;SDS011;4438;50.890;4.726;2024-01-10T05:09:11;11.00;;;7.07;;
8803;SDS011;4438;50.890;4.726;2024-01-10T05:11:37;9.77;;;7.30;;
8803;SDS011;4438;50.890;4.726;2024-01-10T05:14:03;10.50;;;7.50;;
8803;SDS011;4438;50.890;4.726;2024-01-10T05:16:29;13.87;;;8.30;;
8803;SDS011;4438;50.890;4.726;2024-01-10T05:18:56;11.07;;;7.77;;
8803;SDS011;4438;50.890;4.726;2024-01-10T05:21:22;14.27;;;8.50;;
8803;SDS011;4438;50.890;4.726;2024-01-10T05:23:48;9.80;;;7.47;;
8803;SDS011;4438;50.890;4.726;2024-01-10T05:26:14;12.13;;;8.27;;
8803;SDS011;4438;50.890;4.726;2024-01-10T05:28:40;12.67;;;8.23;;
8803;SDS011;4438;50.890;4.726;2024-01-10T05:31:06;12.20;;;8.17;;
8803;SDS011;4438;50.890;4.726;2024-01-10T05:33:33;12.73;;;8.20;;
8803;SDS011;4438;50.890;4.726;2024-01-10T05:35:59;12.07;;;7.73;;
8803;SDS011;4438;50.890;4.726;2024-01-10T05:38:25;11.77;;;8.27;;
8803;SDS011;4438;50.890;4.726;2024-01-10T05:40:52;13.30;;;8.10;;
8803;SDS011;4438;50.890;4.726;2024-01-10T05:43:18;12.33;;;8.03;;
8803;SDS011;4438;50.890;4.726;2024-01-10T05:45:44;12.63;;;8.33;;
8803;SDS011;4438;50.890;4.726;2024-01-10T05:48:10;10.70;;;7.23;;
8803;SDS011;4438;50.890;4.726;2024-01-10T05:50:36;12.00;;;8.77;;
8803;SDS011;4438;50.890;4.726;2024-01-10T05:53:04;10.33;;;8.03;;
8803;SDS011;4438;50.890;4.726;2024-01-10T05:55:30;11.57;;;7.97;;
8803;SDS011;4438;50.890;4.726;2024-01-10T05:57:56;11.43;;;7.53;;
8803;SDS011;4438;50.890;4.726;2024-01-10T06:00:22;13.23;;;8.63;;
8803;SDS011;4438;50.890;4.726;2024-01-10T06:02:48;11.10;;;8.23;;
8803;SDS011;4438;50.890;4.726;2024-01-10T06:05:14;13.73;;;8.23;;
8803;SDS011;4438;50.890;4.726;2024-01-10T06:07:40;14.83;;;8.73;;
8803;SDS011;4438;50.890;4.726;2024-01-10T06:10:07;12.47;;;8.07;;
8803;SDS011;4438;50.890;4.726;2024-01-10T06:12:33;10.77;;;7.93;;
8803;SDS011;4438;50.890;4.726;2024-01-10T06:14:59;14.23;;;8.50;;
8803;SDS011;4438;50.890;4.726;2024-01-10T06:17:25;12.83;;;8.30;;
8803;SDS011;4438;50.890;4.726;2024-01-10T06:19:52;12.03;;;7.77;;
8803;SDS011;4438;50.890;4.726;2024-01-10T06:22:18;12.10;;;7.63;;
8803;SDS011;4438;50.890;4.726;2024-01-10T06:24:50;12.73;;;8.33;;
8803;SDS011;4438;50.890;4.726;2024-01-10T06:27:16;12.23;;;8.17;;
8803;SDS011;4438;50.890;4.726;2024-01-10T06:29:43;14.63;;;8.27;;
8803;SDS011;4438;50.890;4.726;2024-01-10T06:32:12;13.93;;;7.73;;
8803;SDS011;4438;50.890;4.726;2024-01-10T06:34:39;12.13;;;8.17;;
8803;SDS011;4438;50.890;4.726;2024-01-10T06:37:05;11.90;;;7.60;;
8803;SDS011;4438;50.890;4.726;2024-01-10T06:39:32;11.67;;;7.40;;
8803;SDS011;4438;50.890;4.726;2024-01-10T06:41:58;13.27;;;8.27;;
8803;SDS011;4438;50.890;4.726;2024-01-10T06:44:24;11.47;;;8.00;;
8803;SDS011;4438;50.890;4.726;2024-01-10T06:46:53;10.80;;;7.33;;
8803;SDS011;4438;50.890;4.726;2024-01-10T06:49:19;13.30;;;8.77;;
8803;SDS011;4438;50.890;4.726;2024-01-10T06:51:45;13.23;;;8.57;;
8803;SDS011;4438;50.890;4.726;2024-01-10T06:54:11;13.47;;;7.57;;
8803;SDS011;4438;50.890;4.726;2024-01-10T06:56:38;12.87;;;8.03;;
8803;SDS011;4438;50.890;4.726;2024-01-10T06:59:05;11.57;;;7.70;;
8803;SDS011;4438;50.890;4.726;2024-01-10T07:01:31;13.00;;;8.17;;
8803;SDS011;4438;50.890;4.726;2024-01-10T07:03:57;11.80;;;7.80;;
8803;SDS011;4438;50.890;4.726;2024-01-10T07:06:23;14.03;;;8.20;;
8803;SDS011;4438;50.890;4.726;2024-01-10T07:08:49;12.10;;;8.00;;
8803;SDS011;4438;50.890;4.726;2024-01-10T07:11:16;13.00;;;8.37;;
8803;SDS011;4438;50.890;4.726;2024-01-10T07:13:42;12.37;;;8.30;;
8803;SDS011;4438;50.890;4.726;2024-01-10T07:16:09;14.67;;;8.50;;
8803;SDS011;4438;50.890;4.726;2024-01-10T07:18:35;14.27;;;8.03;;
8803;SDS011;4438;50.890;4.726;2024-01-10T07:21:01;11.00;;;7.43;;
8803;SDS011;4438;50.890;4.726;2024-01-10T07:23:27;10.37;;;6.97;;
8803;SDS011;4438;50.890;4.726;2024-01-10T07:25:53;12.50;;;7.93;;
8803;SDS011;4438;50.890;4.726;2024-01-10T07:28:19;11.10;;;7.43;;
8803;SDS011;4438;50.890;4.726;2024-01-10T07:30:46;13.70;;;8.10;;
8803;SDS011;4438;50.890;4.726;2024-01-10T07:33:12;12.27;;;7.57;;
8803;SDS011;4438;50.890;4.726;2024-01-10T07:35:38;11.90;;;7.80;;
8803;SDS011;4438;50.890;4.726;2024-01-10T07:38:04;15.10;;;8.70;;
8803;SDS011;4438;50.890;4.726;2024-01-10T07:40:36;16.20;;;8.17;;
8803;SDS011;4438;50.890;4.726;2024-01-10T07:43:03;11.87;;;7.80;;
8803;SDS011;4438;50.890;4.726;2024-01-10T07:45:29;12.23;;;7.53;;
8803;SDS011;4438;50.890;4.726;2024-01-10T07:47:55;11.30;;;7.87;;
8803;SDS011;4438;50.890;4.726;2024-01-10T07:50:21;12.20;;;8.00;;
8803;SDS011;4438;50.890;4.726;2024-01-10T07:52:52;14.10;;;7.60;;
8803;SDS011;4438;50.890;4.726;2024-01-10T07:55:18;12.00;;;7.70;;
8803;SDS011;4438;50.890;4.726;2024-01-10T07:57:44;11.10;;;7.97;;
8803;SDS011;4438;50.890;4.726;2024-01-10T08:00:10;11.00;;;7.63;;
8803;SDS011;4438;50.890;4.726;2024-01-10T08:02:39;24.70;;;17.03;;
8803;SDS011;4438;50.890;4.726;2024-01-10T08:05:06;13.07;;;10.00;;
8803;SDS011;4438;50.890;4.726;2024-01-10T08:07:35;12.57;;;9.03;;
8803;SDS011;4438;50.890;4.726;2024-01-10T08:10:08;11.37;;;8.33;;
8803;SDS011;4438;50.890;4.726;2024-01-10T08:12:35;14.17;;;9.20;;
8803;SDS011;4438;50.890;4.726;2024-01-10T08:15:01;11.70;;;8.93;;
8803;SDS011;4438;50.890;4.726;2024-01-10T08:17:27;14.50;;;9.83;;
8803;SDS011;4438;50.890;4.726;2024-01-10T08:19:53;13.50;;;9.07;;
8803;SDS011;4438;50.890;4.726;2024-01-10T08:22:19;14.30;;;9.60;;
8803;SDS011;4438;50.890;4.726;2024-01-10T08:24:46;14.50;;;9.93;;
8803;SDS011;4438;50.890;4.726;2024-01-10T08:27:12;13.83;;;9.70;;
8803;SDS011;4438;50.890;4.726;2024-01-10T08:29:39;12.40;;;8.27;;
8803;SDS011;4438;50.890;4.726;2024-01-10T08:32:05;11.63;;;8.03;;
8803;SDS011;4438;50.890;4.726;2024-01-10T08:34:31;16.00;;;9.10;;
8803;SDS011;4438;50.890;4.726;2024-01-10T08:36:58;11.63;;;7.53;;
8803;SDS011;4438;50.890;4.726;2024-01-10T08:39:24;10.57;;;7.50;;
8803;SDS011;4438;50.890;4.726;2024-01-10T08:41:53;13.67;;;8.03;;
8803;SDS011;4438;50.890;4.726;2024-01-10T08:44:20;12.73;;;8.37;;
8803;SDS011;4438;50.890;4.726;2024-01-10T08:46:47;12.70;;;8.33;;
8803;SDS011;4438;50.890;4.726;2024-01-10T08:49:16;11.53;;;8.10;;
8803;SDS011;4438;50.890;4.726;2024-01-10T08:51:42;13.87;;;8.57;;
8803;SDS011;4438;50.890;4.726;2024-01-10T08:54:09;12.87;;;8.37;;
8803;SDS011;4438;50.890;4.726;2024-01-10T08:56:38;13.87;;;8.00;;
8803;SDS011;4438;50.890;4.726;2024-01-10T08:59:04;13.27;;;7.83;;
8803;SDS011;4438;50.890;4.726;2024-01-10T09:01:30;29.77;;;19.17;;
8803;SDS011;4438;50.890;4.726;2024-01-10T09:03:56;16.73;;;10.83;;
8803;SDS011;4438;50.890;4.726;2024-01-10T09:06:22;13.83;;;9.97;;
8803;SDS011;4438;50.890;4.726;2024-01-10T09:08:48;13.57;;;9.43;;
8803;SDS011;4438;50.890;4.726;2024-01-10T09:11:14;11.73;;;8.50;;
8803;SDS011;4438;50.890;4.726;2024-01-10T09:13:40;13.23;;;8.97;;
8803;SDS011;4438;50.890;4.726;2024-01-10T09:16:06;13.73;;;8.83;;
8803;SDS011;4438;50.890;4.726;2024-01-10T09:18:32;12.07;;;8.53;;
8803;SDS011;4438;50.890;4.726;2024-01-10T09:20:58;14.43;;;8.57;;
8803;SDS011;4438;50.890;4.726;2024-01-10T09:23:24;12.77;;;8.50;;
8803;SDS011;4438;50.890;4.726;2024-01-10T09:25:52;14.73;;;8.93;;
8803;SDS011;4438;50.890;4.726;2024-01-10T09:28:18;12.13;;;8.60;;
8803;SDS011;4438;50.890;4.726;2024-01-10T09:30:44;11.90;;;8.77;;
8803;SDS011;4438;50.890;4.726;2024-01-10T09:33:10;13.90;;;9.03;;
8803;SDS011;4438;50.890;4.726;2024-01-10T09:35:37;14.47;;;9.30;;
8803;SDS011;4438;50.890;4.726;2024-01-10T09:38:03;14.80;;;9.37;;
8803;SDS011;4438;50.890;4.726;2024-01-10T09:40:29;14.93;;;8.87;;
8803;SDS011;4438;50.890;4.726;2024-01-10T09:42:55;15.30;;;8.90;;
8803;SDS011;4438;50.890;4.726;2024-01-10T09:45:22;12.70;;;8.83;;
8803;SDS011;4438;50.890;4.726;2024-01-10T09:47:50;12.27;;;8.73;;
8803;SDS011;4438;50.890;4.726;2024-01-10T09:50:18;14.13;;;9.17;;
8803;SDS011;4438;50.890;4.726;2024-01-10T09:52:51;12.40;;;8.50;;
8803;SDS011;4438;50.890;4.726;2024-01-10T09:55:21;15.17;;;9.30;;
8803;SDS011;4438;50.890;4.726;2024-01-10T09:57:48;13.27;;;8.77;;
8803;SDS011;4438;50.890;4.726;2024-01-10T10:00:17;14.33;;;9.03;;
8803;SDS011;4438;50.890;4.726;2024-01-10T10:02:44;14.07;;;8.80;;
8803;SDS011;4438;50.890;4.726;2024-01-10T10:05:17;14.30;;;8.97;;
8803;SDS011;4438;50.890;4.726;2024-01-10T10:07:50;13.40;;;9.27;;
8803;SDS011;4438;50.890;4.726;2024-01-10T10:10:16;12.27;;;9.10;;
8803;SDS011;4438;50.890;4.726;2024-01-10T10:15:13;13.60;;;8.80;;
8803;SDS011;4438;50.890;4.726;2024-01-10T10:17:39;12.10;;;8.90;;
8803;SDS011;4438;50.890;4.726;2024-01-10T10:20:12;14.57;;;8.50;;
8803;SDS011;4438;50.890;4.726;2024-01-10T10:22:39;11.70;;;8.97;;
8803;SDS011;4438;50.890;4.726;2024-01-10T10:25:05;12.90;;;8.87;;
8803;SDS011;4438;50.890;4.726;2024-01-10T10:27:31;13.10;;;9.17;;
8803;SDS011;4438;50.890;4.726;2024-01-10T10:29:57;13.87;;;9.20;;
8803;SDS011;4438;50.890;4.726;2024-01-10T10:32:23;13.40;;;8.90;;
8803;SDS011;4438;50.890;4.726;2024-01-10T10:34:49;13.57;;;9.30;;
8803;SDS011;4438;50.890;4.726;2024-01-10T10:37:15;13.43;;;9.20;;
8803;SDS011;4438;50.890;4.726;2024-01-10T10:39:41;13.13;;;9.13;;
8803;SDS011;4438;50.890;4.726;2024-01-10T10:42:07;16.47;;;9.63;;
8803;SDS011;4438;50.890;4.726;2024-01-10T10:44:33;13.10;;;9.20;;
8803;SDS011;4438;50.890;4.726;2024-01-10T10:47:04;13.00;;;9.07;;
8803;SDS011;4438;50.890;4.726;2024-01-10T10:49:31;12.83;;;9.27;;
8803;SDS011;4438;50.890;4.726;2024-01-10T10:51:57;13.00;;;9.20;;
8803;SDS011;4438;50.890;4.726;2024-01-10T10:54:25;14.97;;;9.57;;
8803;SDS011;4438;50.890;4.726;2024-01-10T10:56:51;11.80;;;9.00;;
8803;SDS011;4438;50.890;4.726;2024-01-10T10:59:19;14.23;;;9.77;;
8803;SDS011;4438;50.890;4.726;2024-01-10T11:01:46;13.17;;;9.20;;
8803;SDS011;4438;50.890;4.726;2024-01-10T11:04:12;12.20;;;8.93;;
8803;SDS011;4438;50.890;4.726;2024-01-10T11:06:42;15.43;;;9.80;;
8803;SDS011;4438;50.890;4.726;2024-01-10T11:09:09;17.13;;;9.80;;
8803;SDS011;4438;50.890;4.726;2024-01-10T11:14:26;15.37;;;9.40;;
8803;SDS011;4438;50.890;4.726;2024-01-10T11:17:14;13.27;;;9.70;;
8803;SDS011;4438;50.890;4.726;2024-01-10T11:19:53;16.10;;;9.50;;
8803;SDS011;4438;50.890;4.726;2024-01-10T11:24:50;13.53;;;9.30;;
8803;SDS011;4438;50.890;4.726;2024-01-10T11:27:17;15.47;;;9.73;;
8803;SDS011;4438;50.890;4.726;2024-01-10T11:29:45;14.30;;;9.23;;
8803;SDS011;4438;50.890;4.726;2024-01-10T11:32:16;15.77;;;10.30;;
8803;SDS011;4438;50.890;4.726;2024-01-10T11:35:18;14.17;;;9.43;;
8803;SDS011;4438;50.890;4.726;2024-01-10T11:37:42;14.93;;;9.90;;
8803;SDS011;4438;50.890;4.726;2024-01-10T11:40:09;13.63;;;9.90;;
8803;SDS011;4438;50.890;4.726;2024-01-10T11:42:42;13.83;;;10.00;;
8803;SDS011;4438;50.890;4.726;2024-01-10T11:45:08;13.40;;;10.13;;
8803;SDS011;4438;50.890;4.726;2024-01-10T11:47:38;14.10;;;9.80;;
8803;SDS011;4438;50.890;4.726;2024-01-10T11:50:06;13.77;;;9.60;;
8803;SDS011;4438;50.890;4.726;2024-01-10T11:52:33;14.67;;;9.73;;
8803;SDS011;4438;50.890;4.726;2024-01-10T11:54:59;15.10;;;10.00;;
8803;SDS011;4438;50.890;4.726;2024-01-10T11:57:26;15.13;;;9.87;;
8803;SDS011;4438;50.890;4.726;2024-01-10T11:59:53;17.37;;;10.30;;
8803;SDS011;4438;50.890;4.726;2024-01-10T12:02:20;14.17;;;9.27;;
8803;SDS011;4438;50.890;4.726;2024-01-10T12:04:46;15.63;;;10.40;;
8803;SDS011;4438;50.890;4.726;2024-01-10T12:07:13;13.27;;;10.00;;
8803;SDS011;4438;50.890;4.726;2024-01-10T12:09:39;14.47;;;10.47;;
8803;SDS011;4438;50.890;4.726;2024-01-10T12:12:07;14.13;;;10.17;;
8803;SDS011;4438;50.890;4.726;2024-01-10T12:14:34;14.00;;;9.93;;
8803;SDS011;4438;50.890;4.726;2024-01-10T12:17:01;16.93;;;10.43;;
8803;SDS011;4438;50.890;4.726;2024-01-10T12:19:29;15.57;;;10.80;;
8803;SDS011;4438;50.890;4.726;2024-01-10T12:21:55;13.53;;;10.10;;
8803;SDS011;4438;50.890;4.726;2024-01-10T12:24:21;15.00;;;10.40;;
8803;SDS011;4438;50.890;4.726;2024-01-10T12:26:48;14.93;;;10.53;;
8803;SDS011;4438;50.890;4.726;2024-01-10T12:29:18;15.47;;;10.37;;
8803;SDS011;4438;50.890;4.726;2024-01-10T12:31:47;14.63;;;10.47;;
8803;SDS011;4438;50.890;4.726;2024-01-10T12:34:14;15.00;;;10.37;;
8803;SDS011;4438;50.890;4.726;2024-01-10T12:36:40;19.03;;;11.43;;
8803;SDS011;4438;50.890;4.726;2024-01-10T12:39:07;18.70;;;11.07;;
8803;SDS011;4438;50.890;4.726;2024-01-10T12:41:33;15.10;;;9.90;;
8803;SDS011;4438;50.890;4.726;2024-01-10T12:44:01;15.33;;;10.87;;
8803;SDS011;4438;50.890;4.726;2024-01-10T12:46:28;13.80;;;10.00;;
8803;SDS011;4438;50.890;4.726;2024-01-10T12:48:58;14.30;;;10.77;;
8803;SDS011;4438;50.890;4.726;2024-01-10T12:51:26;18.37;;;10.33;;
8803;SDS011;4438;50.890;4.726;2024-01-10T12:53:52;14.13;;;10.07;;
8803;SDS011;4438;50.890;4.726;2024-01-10T12:56:18;17.77;;;10.30;;
8803;SDS011;4438;50.890;4.726;2024-01-10T12:58:45;16.07;;;10.40;;
8803;SDS011;4438;50.890;4.726;2024-01-10T13:01:11;16.17;;;10.30;;
8803;SDS011;4438;50.890;4.726;2024-01-10T13:03:37;14.50;;;10.70;;
8803;SDS011;4438;50.890;4.726;2024-01-10T13:06:04;18.60;;;11.10;;
8803;SDS011;4438;50.890;4.726;2024-01-10T13:08:31;18.03;;;10.97;;
8803;SDS011;4438;50.890;4.726;2024-01-10T13:10:57;16.47;;;10.90;;
8803;SDS011;4438;50.890;4.726;2024-01-10T13:13:24;15.10;;;10.80;;
8803;SDS011;4438;50.890;4.726;2024-01-10T13:15:51;15.13;;;10.03;;
8803;SDS011;4438;50.890;4.726;2024-01-10T13:18:17;15.60;;;10.40;;
8803;SDS011;4438;50.890;4.726;2024-01-10T13:20:45;15.47;;;10.53;;
8803;SDS011;4438;50.890;4.726;2024-01-10T13:23:12;15.27;;;10.40;;
8803;SDS011;4438;50.890;4.726;2024-01-10T13:25:40;14.20;;;10.53;;
8803;SDS011;4438;50.890;4.726;2024-01-10T13:28:06;15.00;;;10.73;;
8803;SDS011;4438;50.890;4.726;2024-01-10T13:30:32;15.10;;;10.83;;
8803;SDS011;4438;50.890;4.726;2024-01-10T13:32:59;17.00;;;11.23;;
8803;SDS011;4438;50.890;4.726;2024-01-10T13:35:25;15.67;;;11.50;;
8803;SDS011;4438;50.890;4.726;2024-01-10T13:37:51;14.53;;;10.80;;
8803;SDS011;4438;50.890;4.726;2024-01-10T13:40:17;14.43;;;10.90;;
8803;SDS011;4438;50.890;4.726;2024-01-10T13:42:48;16.23;;;11.97;;
8803;SDS011;4438;50.890;4.726;2024-01-10T13:45:15;18.53;;;12.10;;
8803;SDS011;4438;50.890;4.726;2024-01-10T13:47:42;15.57;;;11.00;;
8803;SDS011;4438;50.890;4.726;2024-01-10T13:50:08;16.40;;;11.77;;
8803;SDS011;4438;50.890;4.726;2024-01-10T13:52:35;18.00;;;11.30;;
8803;SDS011;4438;50.890;4.726;2024-01-10T13:55:01;17.37;;;11.47;;
8803;SDS011;4438;50.890;4.726;2024-01-10T13:57:30;16.03;;;11.63;;
8803;SDS011;4438;50.890;4.726;2024-01-10T13:59:57;16.53;;;11.13;;
8803;SDS011;4438;50.890;4.726;2024-01-10T14:02:23;17.53;;;11.63;;
8803;SDS011;4438;50.890;4.726;2024-01-10T14:04:50;13.67;;;11.27;;
8803;SDS011;4438;50.890;4.726;2024-01-10T14:07:16;17.03;;;11.53;;
8803;SDS011;4438;50.890;4.726;2024-01-10T14:09:42;15.50;;;10.60;;
8803;SDS011;4438;50.890;4.726;2024-01-10T14:12:10;16.50;;;11.57;;
8803;SDS011;4438;50.890;4.726;2024-01-10T14:14:37;16.10;;;11.93;;
8803;SDS011;4438;50.890;4.726;2024-01-10T14:17:03;14.63;;;11.37;;
8803;SDS011;4438;50.890;4.726;2024-01-10T14:19:29;15.20;;;11.47;;
8803;SDS011;4438;50.890;4.726;2024-01-10T14:21:55;16.80;;;11.97;;
8803;SDS011;4438;50.890;4.726;2024-01-10T14:24:21;15.60;;;11.87;;
8803;SDS011;4438;50.890;4.726;2024-01-10T14:26:47;16.57;;;11.70;;
8803;SDS011;4438;50.890;4.726;2024-01-10T14:29:13;15.63;;;11.23;;
8803;SDS011;4438;50.890;4.726;2024-01-10T14:31:39;14.93;;;10.87;;
8803;SDS011;4438;50.890;4.726;2024-01-10T14:34:06;14.30;;;11.00;;
8803;SDS011;4438;50.890;4.726;2024-01-10T14:36:32;15.30;;;11.70;;
8803;SDS011;4438;50.890;4.726;2024-01-10T14:38:59;14.83;;;11.37;;
8803;SDS011;4438;50.890;4.726;2024-01-10T14:41:25;16.67;;;11.53;;
8803;SDS011;4438;50.890;4.726;2024-01-10T14:43:51;13.93;;;11.00;;
8803;SDS011;4438;50.890;4.726;2024-01-10T14:46:17;13.93;;;10.83;;
8803;SDS011;4438;50.890;4.726;2024-01-10T14:48:43;15.87;;;11.27;;
8803;SDS011;4438;50.890;4.726;2024-01-10T14:51:09;15.60;;;11.60;;
8803;SDS011;4438;50.890;4.726;2024-01-10T14:53:35;14.77;;;11.20;;
8803;SDS011;4438;50.890;4.726;2024-01-10T14:56:01;16.30;;;11.13;;
8803;SDS011;4438;50.890;4.726;2024-01-10T14:58:27;12.33;;;10.00;;
8803;SDS011;4438;50.890;4.726;2024-01-10T15:00:53;14.70;;;11.17;;
8803;SDS011;4438;50.890;4.726;2024-01-10T15:03:20;15.80;;;11.70;;
8803;SDS011;4438;50.890;4.726;2024-01-10T15:05:46;14.57;;;11.20;;